Time;durP1;ratioP1;P1;durP2;ratioP2;P2;SDS_P1;SDS_P2;PMS_P1;PMS_P2;Temp;Humidity;BMP_temperature;BMP_pressure;BME280_temperature;BME280_humidity;BME280_pressure;Samples;Min_cycle;Max_cycle;Signal;HPM_P1;HPM_P2
2021/10/26 00:02:00;;;;;;;14.17;7.70;;;11.50;99.90;;;;;;5111109;28;20208;-76
2021/10/26 00:04:27;;;;;;;13.70;7.67;;;11.40;99.90;;;;;;5115115;28;20678;-75
2021/10/26 00:06:54;;;;;;;14.87;8.07;;;11.30;99.90;;;;;;5103766;28;20201;-76
2021/10/26 00:09:22;;;;;;;12.37;7.70;;;11.40;99.90;;;;;;5112176;28;20620;-76
2021/10/26 00:11:49;;;;;;;13.83;8.00;;;11.30;99.90;;;;;;5112796;27;20236;-75
2021/10/26 00:14:17;;;;;;;12.47;7.93;;;11.30;99.90;;;;;;5102684;28;20227;-76
2021/10/26 00:16:44;;;;;;;13.27;8.30;;;11.30;99.90;;;;;;5111498;28;20201;-76
2021/10/26 00:19:11;;;;;;;13.47;8.27;;;11.30;99.90;;;;;;5114689;28;20219;-76
2021/10/26 00:21:38;;;;;;;12.87;8.13;;;11.30;99.90;;;;;;5115257;28;20200;-75
2021/10/26 00:24:05;;;;;;;13.00;8.57;;;11.30;99.90;;;;;;5111096;28;20197;-75
2021/10/26 00:26:32;;;;;;;13.20;8.73;;;11.30;99.90;;;;;;5111446;28;20200;-75
2021/10/26 00:28:59;;;;;;;13.93;8.93;;;11.30;99.90;;;;;;5104925;28;20227;-76
2021/10/26 00:31:27;;;;;;;14.43;9.70;;;11.30;99.90;;;;;;5111593;28;20223;-76
2021/10/26 00:33:54;;;;;;;13.90;8.97;;;11.30;99.90;;;;;;5107990;28;20193;-75
2021/10/26 00:36:21;;;;;;;15.10;10.20;;;11.20;99.90;;;;;;5111069;28;20208;-76
2021/10/26 00:38:49;;;;;;;17.03;10.50;;;11.20;99.90;;;;;;5110890;28;20224;-76
2021/10/26 00:41:16;;;;;;;16.83;10.17;;;11.20;99.90;;;;;;5109732;28;20193;-76
2021/10/26 00:43:43;;;;;;;13.63;9.17;;;11.20;99.90;;;;;;5111248;28;20659;-75
2021/10/26 00:46:10;;;;;;;17.03;10.33;;;11.30;99.90;;;;;;5112894;28;20197;-75
2021/10/26 00:48:39;;;;;;;13.40;9.13;;;11.30;99.90;;;;;;5124758;27;20213;-76
2021/10/26 00:51:08;;;;;;;14.93;9.73;;;11.30;99.90;;;;;;5115590;28;20575;-75
2021/10/26 00:53:35;;;;;;;15.27;10.07;;;11.30;99.90;;;;;;5115485;27;20201;-75
2021/10/26 00:56:02;;;;;;;18.00;10.00;;;11.30;99.90;;;;;;5115016;28;20193;-76
2021/10/26 00:58:30;;;;;;;17.10;10.77;;;11.20;99.90;;;;;;5115018;28;20650;-76
2021/10/26 01:00:57;;;;;;;14.53;9.53;;;11.30;99.90;;;;;;5114840;28;20618;-75
2021/10/26 01:03:24;;;;;;;16.23;9.80;;;11.30;99.90;;;;;;5114327;28;20216;-76
2021/10/26 01:05:53;;;;;;;18.30;10.40;;;11.30;99.90;;;;;;5115607;27;20201;-76
2021/10/26 01:08:21;;;;;;;17.27;10.10;;;11.30;99.90;;;;;;5114951;28;20561;-76
2021/10/26 01:10:51;;;;;;;16.87;10.47;;;11.30;99.90;;;;;;5113441;27;20207;-76
2021/10/26 01:13:20;;;;;;;16.63;11.03;;;11.20;99.90;;;;;;5119718;27;20262;-76
2021/10/26 01:15:47;;;;;;;19.77;11.30;;;11.20;99.90;;;;;;5114996;28;20560;-76
2021/10/26 01:18:14;;;;;;;18.10;11.77;;;11.20;99.90;;;;;;5119121;27;20193;-75
2021/10/26 01:20:45;;;;;;;19.53;12.10;;;11.20;99.90;;;;;;5114712;27;20394;-76
2021/10/26 01:23:13;;;;;;;18.20;12.10;;;11.10;99.90;;;;;;5115568;27;20212;-76
2021/10/26 01:25:40;;;;;;;19.17;11.50;;;11.10;99.90;;;;;;5114151;28;20635;-76
2021/10/26 01:28:08;;;;;;;19.23;11.80;;;11.10;99.90;;;;;;5115556;28;20691;-76
2021/10/26 01:30:35;;;;;;;20.37;13.07;;;11.10;99.90;;;;;;5114124;28;20565;-75
2021/10/26 01:33:04;;;;;;;18.40;11.80;;;11.00;99.90;;;;;;5120162;27;20304;-76
2021/10/26 01:35:32;;;;;;;19.43;12.60;;;11.00;99.90;;;;;;5115502;27;20201;-76
2021/10/26 01:38:00;;;;;;;19.30;12.33;;;10.90;99.90;;;;;;5114760;28;20193;-76
2021/10/26 01:40:28;;;;;;;18.63;11.97;;;11.00;99.90;;;;;;5120672;27;20283;-75
2021/10/26 01:42:55;;;;;;;19.57;12.37;;;10.90;99.90;;;;;;5100624;28;20212;-76
2021/10/26 01:45:22;;;;;;;19.70;12.83;;;10.90;99.90;;;;;;5122158;27;20564;-76
2021/10/26 01:47:49;;;;;;;21.40;14.00;;;10.90;99.90;;;;;;5109240;27;20227;-75
2021/10/26 01:50:19;;;;;;;22.33;14.23;;;10.90;99.90;;;;;;5110182;27;20207;-75
2021/10/26 01:52:47;;;;;;;22.23;14.13;;;10.90;99.90;;;;;;5108104;27;20212;-75
2021/10/26 01:55:18;;;;;;;24.73;15.63;;;11.00;99.90;;;;;;5115276;27;20285;-76
2021/10/26 01:57:45;;;;;;;24.10;15.00;;;11.00;99.90;;;;;;5103526;27;20659;-76
2021/10/26 02:00:14;;;;;;;20.43;13.27;;;11.00;99.90;;;;;;5109161;27;20193;-76
2021/10/26 02:02:41;;;;;;;22.60;15.17;;;11.00;99.90;;;;;;5110903;27;20303;-75
2021/10/26 02:05:09;;;;;;;23.53;14.73;;;11.10;99.90;;;;;;5115557;27;20201;-76
2021/10/26 02:07:36;;;;;;;24.63;15.83;;;11.10;99.90;;;;;;5111953;27;20200;-76
2021/10/26 02:10:03;;;;;;;22.83;14.90;;;11.10;99.90;;;;;;5097754;27;20204;-76
2021/10/26 02:12:31;;;;;;;22.97;15.50;;;11.20;99.90;;;;;;5095887;28;20198;-76
2021/10/26 02:14:58;;;;;;;25.47;16.67;;;11.20;99.90;;;;;;5106743;27;20204;-76
2021/10/26 02:17:25;;;;;;;23.47;16.30;;;11.30;99.90;;;;;;5112039;27;20223;-75
2021/10/26 02:19:52;;;;;;;24.87;16.03;;;11.20;99.90;;;;;;5111345;28;20196;-76
2021/10/26 02:22:19;;;;;;;21.90;15.97;;;11.20;99.90;;;;;;5111250;27;20204;-76
2021/10/26 02:24:46;;;;;;;22.47;14.70;;;11.20;99.90;;;;;;5117073;27;20570;-76
2021/10/26 02:27:14;;;;;;;24.33;15.87;;;11.10;99.90;;;;;;5112933;27;20201;-75
2021/10/26 02:29:42;;;;;;;23.17;15.33;;;11.10;99.90;;;;;;5111544;28;20713;-76
2021/10/26 02:32:09;;;;;;;22.43;15.57;;;11.10;99.90;;;;;;5107052;27;20213;-75
2021/10/26 02:34:36;;;;;;;24.80;16.97;;;11.10;99.90;;;;;;5104234;28;20205;-76
2021/10/26 02:37:03;;;;;;;23.90;16.17;;;11.20;99.90;;;;;;5113776;27;20205;-76
2021/10/26 02:39:30;;;;;;;23.47;15.50;;;11.20;99.90;;;;;;5108649;27;20207;-76
2021/10/26 02:41:57;;;;;;;23.47;16.07;;;11.20;99.90;;;;;;5117412;27;20199;-76
2021/10/26 02:44:24;;;;;;;27.70;17.20;;;11.30;99.90;;;;;;5112787;28;20539;-76
2021/10/26 02:46:52;;;;;;;23.37;16.40;;;11.30;99.90;;;;;;5111994;28;20200;-76
2021/10/26 02:49:19;;;;;;;23.83;16.07;;;11.30;99.90;;;;;;5108464;27;20225;-76
2021/10/26 02:51:46;;;;;;;24.33;16.60;;;11.30;99.90;;;;;;5105611;28;20205;-76
2021/10/26 02:54:12;;;;;;;27.17;17.50;;;11.30;99.90;;;;;;5107528;27;20200;-73
2021/10/26 02:56:40;;;;;;;25.13;16.57;;;11.30;99.90;;;;;;5109599;27;20680;-73
2021/10/26 02:59:07;;;;;;;27.27;16.73;;;11.30;99.90;;;;;;5111110;27;20548;-73
2021/10/26 03:01:33;;;;;;;25.90;17.37;;;11.20;99.90;;;;;;5114141;27;20197;-73
2021/10/26 03:04:02;;;;;;;24.23;16.23;;;11.30;99.90;;;;;;5120992;27;20208;-73
2021/10/26 03:06:28;;;;;;;25.90;17.10;;;11.20;99.90;;;;;;5117594;27;20540;-73
2021/10/26 03:08:55;;;;;;;26.77;17.67;;;11.20;99.90;;;;;;5105759;27;20221;-73
2021/10/26 03:11:22;;;;;;;27.17;17.80;;;11.30;99.90;;;;;;5115572;27;20292;-73
2021/10/26 03:13:49;;;;;;;30.60;18.13;;;11.30;99.90;;;;;;5113934;27;20552;-73
2021/10/26 03:16:16;;;;;;;29.47;18.83;;;11.30;99.90;;;;;;5111135;27;20207;-73
2021/10/26 03:18:43;;;;;;;27.70;18.33;;;11.30;99.90;;;;;;5117326;27;20196;-73
2021/10/26 03:21:11;;;;;;;26.93;18.27;;;11.30;99.90;;;;;;5116188;27;20208;-73
2021/10/26 03:23:38;;;;;;;28.83;18.00;;;11.20;99.90;;;;;;5110779;28;20674;-73
2021/10/26 03:26:05;;;;;;;29.67;19.73;;;11.20;99.90;;;;;;5111866;28;20229;-73
2021/10/26 03:28:31;;;;;;;29.40;18.50;;;11.10;99.90;;;;;;5103097;27;20225;-73
2021/10/26 03:31:01;;;;;;;26.07;18.67;;;11.10;99.90;;;;;;5117687;27;20313;-73
2021/10/26 03:33:28;;;;;;;31.23;19.33;;;11.10;99.90;;;;;;5111003;27;20216;-73
2021/10/26 03:35:55;;;;;;;31.67;21.30;;;11.20;99.90;;;;;;5109773;27;20194;-73
2021/10/26 03:38:24;;;;;;;32.67;20.17;;;11.10;99.90;;;;;;5110161;28;20575;-73
2021/10/26 03:40:51;;;;;;;33.20;22.17;;;11.10;99.90;;;;;;5109907;27;20211;-73
2021/10/26 03:43:18;;;;;;;32.43;21.80;;;11.20;99.90;;;;;;5116326;27;20199;-73
2021/10/26 03:45:44;;;;;;;32.10;22.00;;;11.20;99.90;;;;;;5125129;27;20214;-73
2021/10/26 03:48:11;;;;;;;34.07;22.60;;;11.20;99.90;;;;;;5101652;28;20197;-73
2021/10/26 03:50:38;;;;;;;32.33;21.30;;;11.10;99.90;;;;;;5111739;27;20268;-73
2021/10/26 03:53:05;;;;;;;30.80;20.73;;;11.10;99.90;;;;;;5109780;28;20205;-74
2021/10/26 03:55:33;;;;;;;30.60;20.33;;;11.10;99.90;;;;;;5118948;27;20572;-73
2021/10/26 03:58:00;;;;;;;30.90;20.30;;;11.10;99.90;;;;;;5116006;27;20201;-73
2021/10/26 04:00:27;;;;;;;34.07;22.13;;;11.10;99.90;;;;;;5116440;27;20203;-73
2021/10/26 04:02:54;;;;;;;34.57;21.77;;;11.10;99.90;;;;;;5114103;28;20286;-73
2021/10/26 04:05:23;;;;;;;34.33;21.27;;;11.20;99.90;;;;;;5112985;27;20701;-72
2021/10/26 04:07:55;;;;;;;31.90;20.30;;;11.20;99.90;;;;;;5108853;28;20674;-73
2021/10/26 04:10:33;;;;;;;32.27;20.83;;;11.20;99.90;;;;;;5115687;28;20332;-73
2021/10/26 04:13:03;;;;;;;33.37;20.60;;;11.30;99.90;;;;;;5111539;28;20196;-73
2021/10/26 04:15:30;;;;;;;34.33;21.20;;;11.30;99.90;;;;;;5111083;28;20254;-72
2021/10/26 04:17:57;;;;;;;34.40;21.60;;;11.30;99.90;;;;;;5110909;28;20638;-73
2021/10/26 04:20:24;;;;;;;36.93;22.20;;;11.30;99.90;;;;;;5114268;28;20211;-73
2021/10/26 04:22:51;;;;;;;34.07;22.07;;;11.30;99.90;;;;;;5116227;28;20643;-73
2021/10/26 04:25:18;;;;;;;38.90;23.47;;;11.30;99.90;;;;;;5116335;27;20196;-73
2021/10/26 04:27:45;;;;;;;37.00;22.60;;;11.30;99.90;;;;;;5116058;28;20215;-73
2021/10/26 04:30:14;;;;;;;30.40;20.73;;;11.30;99.90;;;;;;5115248;27;20228;-72
2021/10/26 04:32:41;;;;;;;34.47;21.87;;;11.30;99.90;;;;;;5112044;27;20542;-73
2021/10/26 04:35:09;;;;;;;31.67;20.43;;;11.30;99.90;;;;;;5119167;27;20643;-73
2021/10/26 04:37:36;;;;;;;34.37;20.40;;;11.30;99.90;;;;;;5120457;27;20201;-73
2021/10/26 04:40:04;;;;;;;34.87;21.70;;;11.30;99.90;;;;;;5118787;27;20193;-73
2021/10/26 04:42:32;;;;;;;31.67;19.87;;;11.30;99.90;;;;;;5103095;28;20754;-73
2021/10/26 04:44:59;;;;;;;42.80;28.40;;;11.40;99.90;;;;;;5113729;28;20583;-73
2021/10/26 04:47:27;;;;;;;32.50;21.30;;;11.30;99.90;;;;;;5115816;28;20205;-73
2021/10/26 04:49:54;;;;;;;33.13;19.77;;;11.30;99.90;;;;;;5121243;27;20220;-73
2021/10/26 04:52:21;;;;;;;31.20;20.53;;;11.30;99.90;;;;;;5115059;28;20213;-73
2021/10/26 04:54:48;;;;;;;32.10;18.70;;;11.30;99.90;;;;;;5115202;28;20200;-73
2021/10/26 04:57:15;;;;;;;33.63;19.97;;;11.30;99.90;;;;;;5115192;27;20200;-73
2021/10/26 04:59:42;;;;;;;30.33;18.83;;;11.30;99.90;;;;;;5118050;27;20192;-73
2021/10/26 05:02:09;;;;;;;27.73;18.50;;;11.30;99.90;;;;;;5118814;27;20672;-73
2021/10/26 05:04:37;;;;;;;27.13;16.73;;;11.30;99.90;;;;;;5104478;27;20207;-73
2021/10/26 05:07:04;;;;;;;31.33;18.73;;;11.30;99.90;;;;;;5115145;28;20207;-74
2021/10/26 05:09:31;;;;;;;29.37;18.43;;;11.30;99.90;;;;;;5116336;27;20307;-73
2021/10/26 05:11:58;;;;;;;28.93;18.23;;;11.30;99.90;;;;;;5123774;27;20204;-73
2021/10/26 05:14:25;;;;;;;27.03;16.13;;;11.30;99.90;;;;;;5113318;28;20203;-73
2021/10/26 05:16:53;;;;;;;27.90;17.77;;;11.30;99.90;;;;;;5115132;27;20281;-73
2021/10/26 05:19:21;;;;;;;27.47;17.13;;;11.30;99.90;;;;;;5113927;28;20200;-73
2021/10/26 05:21:49;;;;;;;27.23;16.13;;;11.30;99.90;;;;;;5113589;28;20280;-73
2021/10/26 05:24:16;;;;;;;27.73;17.07;;;11.30;99.90;;;;;;5114320;28;20201;-73
2021/10/26 05:26:44;;;;;;;26.00;16.60;;;11.30;99.90;;;;;;5101526;28;20201;-73
2021/10/26 05:29:11;;;;;;;30.87;17.63;;;11.30;99.90;;;;;;5114401;28;20217;-73
2021/10/26 05:31:39;;;;;;;26.07;16.50;;;11.30;99.90;;;;;;5114558;28;20516;-73
2021/10/26 05:34:08;;;;;;;29.23;17.67;;;11.30;99.90;;;;;;5114166;28;20193;-73
2021/10/26 05:36:35;;;;;;;28.50;17.63;;;11.30;99.90;;;;;;5115068;28;20201;-73
2021/10/26 05:39:06;;;;;;;27.40;17.20;;;11.30;99.90;;;;;;5102757;28;20203;-74
2021/10/26 05:41:33;;;;;;;25.93;16.03;;;11.30;99.90;;;;;;5114115;28;20611;-73
2021/10/26 05:44:00;;;;;;;25.87;17.03;;;11.30;99.90;;;;;;5126783;27;20201;-73
2021/10/26 05:46:28;;;;;;;24.57;15.10;;;11.30;99.90;;;;;;5115132;27;20200;-73
2021/10/26 05:48:54;;;;;;;25.67;15.33;;;11.30;99.90;;;;;;5113843;28;20197;-73
2021/10/26 05:51:21;;;;;;;27.33;16.03;;;11.30;99.90;;;;;;5120304;27;20692;-74
2021/10/26 05:53:48;;;;;;;25.77;16.20;;;11.40;99.90;;;;;;5113900;28;20201;-73
2021/10/26 05:56:17;;;;;;;27.50;15.33;;;11.40;99.90;;;;;;5120990;27;20624;-73
2021/10/26 05:58:43;;;;;;;27.37;15.83;;;11.30;99.90;;;;;;5126250;27;20901;-73
2021/10/26 06:01:10;;;;;;;24.47;15.97;;;11.40;99.90;;;;;;5122818;27;20301;-73
2021/10/26 06:03:37;;;;;;;27.00;17.03;;;11.40;99.90;;;;;;5114679;28;20655;-73
2021/10/26 06:06:04;;;;;;;26.97;16.80;;;11.30;99.90;;;;;;5123066;27;20201;-73
2021/10/26 06:08:31;;;;;;;25.90;17.07;;;11.30;99.90;;;;;;5112979;28;20196;-73
2021/10/26 06:11:01;;;;;;;28.00;16.47;;;11.30;99.90;;;;;;5113389;28;20870;-73
2021/10/26 06:13:32;;;;;;;23.47;14.73;;;11.30;99.90;;;;;;5118048;27;20648;-73
2021/10/26 06:15:59;;;;;;;25.33;15.93;;;11.30;99.90;;;;;;5112577;28;20227;-73
2021/10/26 06:18:26;;;;;;;26.90;16.73;;;11.30;99.90;;;;;;5113677;28;20201;-70
2021/10/26 06:20:52;;;;;;;24.37;15.90;;;11.40;99.90;;;;;;5099616;27;20197;-70
2021/10/26 06:23:19;;;;;;;26.00;15.97;;;11.40;99.90;;;;;;5112161;28;20591;-70
2021/10/26 06:25:46;;;;;;;26.97;16.97;;;11.30;99.90;;;;;;5115206;27;20211;-70
2021/10/26 06:28:14;;;;;;;25.90;16.17;;;11.30;99.90;;;;;;5119860;27;20205;-70
2021/10/26 06:30:44;;;;;;;26.30;16.03;;;11.30;99.90;;;;;;5113747;28;20590;-70
2021/10/26 06:33:11;;;;;;;26.10;16.43;;;11.30;99.90;;;;;;5119131;27;20224;-70
2021/10/26 06:35:38;;;;;;;27.43;16.87;;;11.30;99.90;;;;;;5113481;28;20211;-70
2021/10/26 06:38:05;;;;;;;26.30;16.83;;;11.30;99.90;;;;;;5113883;28;20258;-70
2021/10/26 06:40:31;;;;;;;26.73;16.77;;;11.30;99.90;;;;;;5114374;27;20591;-70
2021/10/26 06:42:58;;;;;;;29.13;16.90;;;11.30;99.90;;;;;;5109414;27;20210;-70
2021/10/26 06:45:25;;;;;;;25.80;16.63;;;11.30;99.90;;;;;;5110313;28;20201;-70
2021/10/26 06:47:54;;;;;;;28.73;17.67;;;11.30;99.90;;;;;;5105169;28;20538;-70
2021/10/26 06:50:21;;;;;;;27.67;16.60;;;11.40;99.90;;;;;;5113283;28;20701;-70
2021/10/26 06:52:48;;;;;;;25.17;16.13;;;11.40;99.90;;;;;;5112693;28;20204;-70
2021/10/26 06:55:18;;;;;;;26.93;16.23;;;11.40;99.90;;;;;;5113577;27;20199;-70
2021/10/26 06:57:46;;;;;;;29.07;17.80;;;11.50;99.90;;;;;;5112520;28;20201;-70
2021/10/26 07:00:14;;;;;;;27.57;18.07;;;11.50;99.90;;;;;;5111999;28;20297;-70
2021/10/26 07:02:48;;;;;;;31.37;18.30;;;11.60;99.90;;;;;;5116147;27;20216;-70
2021/10/26 07:05:21;;;;;;;29.50;17.83;;;11.60;99.90;;;;;;5115376;27;20705;-70
2021/10/26 07:07:48;;;;;;;29.17;18.20;;;11.60;99.90;;;;;;5112961;28;20229;-70
2021/10/26 07:10:15;;;;;;;31.77;19.00;;;11.60;99.90;;;;;;5111356;27;20217;-69
2021/10/26 07:12:42;;;;;;;29.47;19.53;;;11.60;99.90;;;;;;5114090;27;20197;-70
2021/10/26 07:15:10;;;;;;;28.97;17.90;;;11.60;99.90;;;;;;5111174;28;20566;-70
2021/10/26 07:17:39;;;;;;;27.50;16.43;;;11.60;99.90;;;;;;5117060;27;20565;-70
2021/10/26 07:20:09;;;;;;;28.10;17.10;;;11.60;99.90;;;;;;5116068;27;20193;-70
2021/10/26 07:22:39;;;;;;;27.60;17.07;;;11.70;99.90;;;;;;5112184;28;20223;-70
2021/10/26 07:25:09;;;;;;;24.90;15.53;;;11.70;99.90;;;;;;5108411;27;20569;-70
2021/10/26 07:27:37;;;;;;;24.37;15.63;;;11.70;99.90;;;;;;5119890;27;20241;-70
2021/10/26 07:30:05;;;;;;;26.13;15.67;;;11.90;99.90;;;;;;5112731;27;20228;-70
2021/10/26 07:32:32;;;;;;;26.83;15.80;;;11.80;99.90;;;;;;5111419;28;20579;-70
2021/10/26 07:34:59;;;;;;;25.27;16.10;;;11.80;99.90;;;;;;5112228;28;20566;-70
2021/10/26 07:37:31;;;;;;;24.30;15.43;;;11.80;99.90;;;;;;5112810;28;20201;-70
2021/10/26 07:40:00;;;;;;;25.10;15.67;;;11.80;99.90;;;;;;5117881;27;20257;-70
2021/10/26 07:42:27;;;;;;;26.17;16.03;;;11.90;99.90;;;;;;5116776;27;20201;-70
2021/10/26 07:44:54;;;;;;;23.10;14.57;;;11.90;99.90;;;;;;5111539;27;20655;-70
2021/10/26 07:47:22;;;;;;;22.13;13.97;;;11.90;99.90;;;;;;5112494;28;20274;-70
2021/10/26 07:49:50;;;;;;;24.70;14.97;;;12.00;99.90;;;;;;5115703;27;20682;-70
2021/10/26 07:52:18;;;;;;;25.07;15.77;;;12.00;99.90;;;;;;5120719;27;20287;-70
2021/10/26 07:54:50;;;;;;;24.83;15.87;;;12.10;99.90;;;;;;5111589;28;20569;-70
2021/10/26 07:57:18;;;;;;;24.47;16.37;;;12.00;99.90;;;;;;5115079;27;20550;-70
2021/10/26 07:59:46;;;;;;;22.70;15.33;;;12.00;99.90;;;;;;5110918;27;20565;-70
2021/10/26 08:02:14;;;;;;;23.97;16.00;;;12.00;99.90;;;;;;5107870;28;20212;-70
2021/10/26 08:04:44;;;;;;;27.33;16.90;;;12.10;99.90;;;;;;5112590;27;20287;-70
2021/10/26 08:07:11;;;;;;;26.87;16.30;;;12.30;99.90;;;;;;5118723;27;20233;-70
2021/10/26 08:09:39;;;;;;;25.27;15.43;;;12.30;99.90;;;;;;5107796;28;20207;-70
2021/10/26 08:12:07;;;;;;;23.27;15.00;;;12.40;99.90;;;;;;5110309;28;20205;-70
2021/10/26 08:14:35;;;;;;;23.80;15.37;;;12.50;99.90;;;;;;5109282;27;20197;-70
2021/10/26 08:17:02;;;;;;;25.23;15.67;;;12.40;99.90;;;;;;5109225;28;20202;-70
2021/10/26 08:19:29;;;;;;;22.97;15.00;;;12.50;99.90;;;;;;5108760;28;20215;-70
2021/10/26 08:21:57;;;;;;;23.87;15.30;;;12.40;99.90;;;;;;5108544;28;20205;-70
2021/10/26 08:24:29;;;;;;;23.37;15.50;;;12.60;99.90;;;;;;5108981;28;20209;-69
2021/10/26 08:26:59;;;;;;;22.90;14.93;;;12.60;99.90;;;;;;5109811;28;20751;-70
2021/10/26 08:29:42;;;;;;;22.47;15.03;;;12.60;99.90;;;;;;5102143;28;20296;-70
2021/10/26 08:32:32;;;;;;;24.33;16.00;;;12.60;99.90;;;;;;5106931;28;20229;-70
2021/10/26 08:35:19;;;;;;;21.50;14.27;;;12.60;99.90;;;;;;5106827;28;20205;-71
2021/10/26 08:37:47;;;;;;;21.67;13.80;;;12.70;99.90;;;;;;5106154;27;20258;-70
2021/10/26 08:40:15;;;;;;;20.97;13.83;;;12.80;99.90;;;;;;5116012;28;20693;-70
2021/10/26 08:42:43;;;;;;;22.67;13.53;;;12.90;99.90;;;;;;5110984;28;20683;-70
2021/10/26 08:45:10;;;;;;;21.87;14.40;;;12.90;99.90;;;;;;5111614;28;20211;-70
2021/10/26 08:47:41;;;;;;;22.13;14.27;;;13.10;99.90;;;;;;5110814;28;20304;-70
2021/10/26 08:50:09;;;;;;;23.07;14.07;;;13.30;99.90;;;;;;5111475;28;20286;-70
2021/10/26 08:52:36;;;;;;;22.40;14.57;;;13.40;99.90;;;;;;5109402;28;20225;-70
2021/10/26 08:55:05;;;;;;;22.90;15.03;;;13.30;99.90;;;;;;5107543;28;20697;-70
2021/10/26 08:57:32;;;;;;;24.73;15.53;;;13.30;99.90;;;;;;5111635;28;20655;-70
2021/10/26 09:00:05;;;;;;;23.77;15.27;;;13.30;99.90;;;;;;5109328;28;20308;-70
2021/10/26 09:02:40;;;;;;;21.37;14.70;;;13.30;99.90;;;;;;5109378;28;20256;-70
2021/10/26 09:05:17;;;;;;;24.20;14.97;;;13.20;99.90;;;;;;5108841;27;20201;-70
2021/10/26 09:08:00;;;;;;;23.60;13.97;;;13.30;99.90;;;;;;5102153;27;20760;-70
2021/10/26 09:10:30;;;;;;;20.47;13.43;;;13.30;99.90;;;;;;5108922;28;20286;-70
2021/10/26 09:18:38;;;;;;;20.53;12.87;;;13.50;99.90;;;;;;5110014;27;20207;-70
2021/10/26 09:21:23;;;;;;;21.30;13.13;;;13.60;99.90;;;;;;5111009;28;20201;-70
2021/10/26 09:23:51;;;;;;;18.10;11.93;;;13.60;99.90;;;;;;5110178;27;20268;-70
2021/10/26 09:26:17;;;;;;;20.20;12.57;;;13.50;99.90;;;;;;5111944;27;20203;-70
2021/10/26 09:28:52;;;;;;;18.57;12.33;;;13.60;99.90;;;;;;5111093;27;20678;-70
2021/10/26 09:31:25;;;;;;;20.67;12.67;;;13.50;99.90;;;;;;5119505;27;20212;-70
2021/10/26 09:34:00;;;;;;;20.63;13.70;;;13.50;99.90;;;;;;5112670;27;20648;-70
2021/10/26 09:36:29;;;;;;;21.30;12.60;;;13.40;99.90;;;;;;5110615;28;20211;-70
2021/10/26 09:39:09;;;;;;;19.90;13.83;;;13.40;99.90;;;;;;5114425;27;20584;-70
2021/10/26 09:41:37;;;;;;;22.50;13.50;;;13.40;99.90;;;;;;5114773;27;20689;-70
2021/10/26 09:44:12;;;;;;;21.67;13.47;;;13.50;99.90;;;;;;5103748;28;20262;-75
2021/10/26 09:46:41;;;;;;;20.20;12.57;;;13.60;99.90;;;;;;5108522;27;20705;-76
2021/10/26 09:49:22;;;;;;;20.80;13.37;;;13.70;99.90;;;;;;5109972;27;20201;-75
2021/10/26 09:51:50;;;;;;;19.67;13.53;;;13.70;99.90;;;;;;5102149;28;20799;-75
2021/10/26 09:54:19;;;;;;;18.93;12.23;;;13.70;99.90;;;;;;5108717;28;20204;-75
2021/10/26 09:57:07;;;;;;;21.50;13.33;;;13.70;99.90;;;;;;5110903;28;20209;-75
2021/10/26 09:59:35;;;;;;;19.50;12.47;;;13.70;99.90;;;;;;5096923;28;20568;-75
2021/10/26 10:02:02;;;;;;;21.27;13.23;;;13.70;99.90;;;;;;5110010;28;20198;-76
2021/10/26 10:04:33;;;;;;;20.47;13.30;;;13.80;99.90;;;;;;5111083;27;20383;-75
2021/10/26 10:07:04;;;;;;;20.17;12.83;;;13.80;99.90;;;;;;5108552;28;20217;-76
2021/10/26 10:09:31;;;;;;;18.17;12.27;;;14.00;99.90;;;;;;5111199;27;20233;-75
2021/10/26 10:12:04;;;;;;;17.47;12.60;;;14.30;99.90;;;;;;5119563;27;20728;-75
2021/10/26 10:14:33;;;;;;;20.23;12.00;;;14.50;99.90;;;;;;5111044;27;20205;-76
2021/10/26 10:17:02;;;;;;;20.17;12.33;;;14.60;99.90;;;;;;5107890;27;20205;-75
2021/10/26 10:19:33;;;;;;;19.83;12.30;;;14.80;99.90;;;;;;5110238;27;20201;-76
2021/10/26 10:22:03;;;;;;;17.10;11.60;;;14.80;99.90;;;;;;5110574;27;20205;-76
2021/10/26 10:24:33;;;;;;;16.80;10.50;;;14.60;99.90;;;;;;5113420;27;20224;-76
2021/10/26 10:27:01;;;;;;;17.40;11.13;;;14.40;99.90;;;;;;5112703;27;20210;-75
2021/10/26 10:29:28;;;;;;;15.73;10.47;;;14.20;99.90;;;;;;5116744;27;20782;-76
2021/10/26 10:31:55;;;;;;;16.97;10.80;;;14.00;99.90;;;;;;5116284;27;20216;-75
2021/10/26 10:34:23;;;;;;;17.33;10.83;;;13.90;99.90;;;;;;5108982;27;20232;-76
2021/10/26 10:36:53;;;;;;;15.57;9.70;;;13.90;99.90;;;;;;5110764;27;20578;-75
2021/10/26 10:39:27;;;;;;;18.03;10.40;;;13.80;99.90;;;;;;5109961;27;20658;-75
2021/10/26 10:42:12;;;;;;;14.93;9.90;;;13.80;99.90;;;;;;5106946;28;20811;-75
2021/10/26 10:44:40;;;;;;;15.30;9.87;;;14.00;99.90;;;;;;5119440;27;20288;-76
2021/10/26 10:47:11;;;;;;;15.17;9.63;;;14.00;99.90;;;;;;5109583;27;20208;-75
2021/10/26 10:49:47;;;;;;;14.80;9.80;;;14.40;99.90;;;;;;5109117;28;20209;-76
2021/10/26 10:52:19;;;;;;;17.67;11.30;;;14.50;99.90;;;;;;5108939;28;20219;-76
2021/10/26 10:54:50;;;;;;;18.23;11.13;;;14.60;99.90;;;;;;5108157;27;20197;-77
2021/10/26 10:57:20;;;;;;;16.17;9.73;;;14.70;99.90;;;;;;5110044;27;20201;-75
2021/10/26 10:59:48;;;;;;;14.03;9.67;;;14.80;99.90;;;;;;5110889;27;20209;-75
2021/10/26 11:02:26;;;;;;;15.10;9.97;;;14.60;99.90;;;;;;5109253;27;20204;-75
2021/10/26 11:04:55;;;;;;;17.13;10.00;;;14.60;99.90;;;;;;5115439;27;20286;-75
2021/10/26 11:07:55;;;;;;;16.90;9.87;;;14.60;99.90;;;;;;5111592;27;20663;-76
2021/10/26 11:10:24;;;;;;;13.20;9.77;;;14.30;99.90;;;;;;5025676;28;20732;-75
2021/10/26 11:12:53;;;;;;;15.50;10.40;;;14.20;99.90;;;;;;5024541;28;20208;-75
2021/10/26 11:15:22;;;;;;;16.50;10.63;;;14.40;99.90;;;;;;5065267;28;20228;-76
2021/10/26 11:17:51;;;;;;;20.07;10.57;;;14.40;99.90;;;;;;5107780;28;20257;-75
2021/10/26 11:20:41;;;;;;;18.20;10.57;;;14.30;99.90;;;;;;5110993;27;20213;-75
2021/10/26 11:23:10;;;;;;;17.23;10.60;;;14.20;99.90;;;;;;5104200;28;20659;-76
2021/10/26 11:25:41;;;;;;;16.30;10.23;;;14.10;99.90;;;;;;5110942;27;20205;-76
2021/10/26 11:28:45;;;;;;;15.00;11.00;;;14.20;99.90;;;;;;5105248;28;20219;-75
2021/10/26 11:31:15;;;;;;;15.73;9.83;;;14.40;99.90;;;;;;5111698;27;20319;-76
2021/10/26 11:33:52;;;;;;;16.87;9.90;;;14.50;99.90;;;;;;5107233;28;20686;-76
2021/10/26 11:36:19;;;;;;;17.50;10.53;;;14.40;99.90;;;;;;5108438;27;20208;-75
2021/10/26 11:38:51;;;;;;;15.47;9.73;;;14.40;99.90;;;;;;5108383;28;20208;-75
2021/10/26 11:41:25;;;;;;;14.33;9.50;;;14.50;99.90;;;;;;5108505;28;20413;-76
2021/10/26 11:43:54;;;;;;;15.47;9.70;;;14.50;99.90;;;;;;5108371;28;20416;-76
2021/10/26 11:46:28;;;;;;;12.87;9.80;;;14.60;99.90;;;;;;5109073;27;20213;-75
2021/10/26 11:48:58;;;;;;;15.27;9.20;;;14.80;99.90;;;;;;5092695;28;20205;-75
2021/10/26 11:51:28;;;;;;;17.90;10.00;;;15.00;99.90;;;;;;5107687;28;20217;-75
2021/10/26 11:53:58;;;;;;;12.63;8.77;;;15.00;99.90;;;;;;5107545;28;20209;-75
2021/10/26 11:56:29;;;;;;;13.80;8.90;;;14.90;99.90;;;;;;5110553;27;20319;-75
2021/10/26 11:59:01;;;;;;;14.73;9.03;;;15.10;99.90;;;;;;5120951;27;20722;-76
2021/10/26 12:01:40;;;;;;;14.73;9.10;;;15.60;99.90;;;;;;5102378;28;20205;-75
2021/10/26 12:04:12;;;;;;;13.93;8.50;;;15.50;99.90;;;;;;5120280;27;20215;-75
2021/10/26 12:06:39;;;;;;;12.23;7.70;;;15.20;99.90;;;;;;5107832;28;20224;-75
2021/10/26 12:09:11;;;;;;;14.10;8.23;;;15.00;99.90;;;;;;5110821;27;20565;-75
2021/10/26 12:11:42;;;;;;;12.63;8.50;;;15.90;99.90;;;;;;5107806;28;20282;-75
2021/10/26 12:14:21;;;;;;;15.30;8.53;;;15.30;99.90;;;;;;5111484;28;20220;-76
2021/10/26 12:17:09;;;;;;;11.60;7.37;;;15.10;99.90;;;;;;5100886;28;20663;-75
2021/10/26 12:19:39;;;;;;;10.17;6.87;;;15.30;99.90;;;;;;5109502;28;20211;-76
2021/10/26 12:22:06;;;;;;;9.00;7.20;;;16.00;99.90;;;;;;5107647;28;20193;-75
2021/10/26 12:24:35;;;;;;;10.43;7.57;;;16.10;99.90;;;;;;5107665;28;20205;-75
2021/10/26 12:27:06;;;;;;;13.50;7.33;;;15.70;99.90;;;;;;5109810;28;20666;-75
2021/10/26 12:29:35;;;;;;;11.03;7.37;;;15.30;99.90;;;;;;5104483;28;20494;-76
2021/10/26 12:32:04;;;;;;;14.10;7.60;;;15.20;99.90;;;;;;5101271;28;20705;-75
2021/10/26 12:34:35;;;;;;;11.23;7.43;;;15.70;99.90;;;;;;5106778;28;20299;-75
2021/10/26 12:37:20;;;;;;;8.90;7.10;;;16.70;99.90;;;;;;5104973;28;20208;-76
2021/10/26 12:39:51;;;;;;;10.80;7.07;;;17.50;99.90;;;;;;5101432;28;20220;-76
2021/10/26 12:42:31;;;;;;;9.90;6.33;;;17.00;99.90;;;;;;5110149;28;20228;-76
2021/10/26 12:44:58;;;;;;;9.33;6.43;;;16.70;99.90;;;;;;5105731;28;20207;-75